Time;durP1;ratioP1;P1;durP2;ratioP2;P2;SDS_P1;SDS_P2;PMS_P1;PMS_P2;Temp;Humidity;BMP_temperature;BMP_pressure;BME280_temperature;BME280_humidity;BME280_pressure;Samples;Min_cycle;Max_cycle;Signal;HPM_P1;HPM_P2
2023/08/19 00:01:08;;;;;;;2.10;2.00;;;23.60;71.10;22.90;96576.00;;;;5020019;28;20247;-79
2023/08/19 00:03:36;;;;;;;2.43;1.50;;;23.50;71.20;22.90;96580.00;;;;5019526;28;20288;-79
2023/08/19 00:06:07;;;;;;;2.00;1.90;;;23.50;71.20;22.80;96580.00;;;;5027744;28;20232;-78
2023/08/19 00:08:36;;;;;;;2.13;2.03;;;23.40;71.20;22.80;96585.00;;;;5022240;28;20193;-78
2023/08/19 00:11:03;;;;;;;1.73;1.63;;;23.40;71.40;22.70;96578.00;;;;5029946;28;20235;-79
2023/08/19 00:13:31;;;;;;;1.77;1.63;;;23.40;71.60;22.70;96584.00;;;;5022145;28;20287;-78
2023/08/19 00:15:59;;;;;;;1.77;1.67;;;23.40;71.70;22.70;96586.00;;;;5029637;28;20257;-77
2023/08/19 00:18:28;;;;;;;1.90;1.80;;;23.30;71.60;22.70;96582.00;;;;5012044;28;20192;-79
2023/08/19 00:20:56;;;;;;;2.10;2.00;;;23.30;71.70;22.70;96585.00;;;;5031308;28;20649;-79
2023/08/19 00:23:25;;;;;;;2.50;2.30;;;23.30;72.10;22.60;96577.00;;;;5029812;28;20259;-79
2023/08/19 00:25:52;;;;;;;2.00;1.80;;;23.30;72.50;22.60;96589.00;;;;5021984;28;20741;-79
2023/08/19 00:28:20;;;;;;;2.63;1.80;;;23.20;72.60;22.60;96580.00;;;;5024722;28;20201;-78
2023/08/19 00:30:47;;;;;;;3.57;2.23;;;23.20;72.70;22.60;96585.00;;;;5022844;28;20203;-79
2023/08/19 00:33:14;;;;;;;1.80;1.70;;;23.20;72.90;22.60;96576.00;;;;5025804;28;20192;-79
2023/08/19 00:35:43;;;;;;;1.80;1.70;;;23.20;73.10;22.60;96586.00;;;;5027307;28;20223;-79
2023/08/19 00:38:10;;;;;;;6.13;2.30;;;23.20;73.10;22.60;96583.00;;;;5026431;28;20311;-78
2023/08/19 00:40:37;;;;;;;2.50;2.30;;;23.20;72.90;22.60;96578.00;;;;5015419;28;20201;-79
2023/08/19 00:43:05;;;;;;;1.97;1.87;;;23.20;72.90;22.60;96574.00;;;;5026176;28;20693;-79
2023/08/19 00:45:33;;;;;;;2.87;2.13;;;23.20;73.00;22.60;96570.00;;;;5021125;28;20654;-79
2023/08/19 00:48:00;;;;;;;2.27;2.00;;;23.10;73.10;22.50;96576.00;;;;5030859;28;20204;-79
2023/08/19 00:50:28;;;;;;;2.63;2.43;;;23.10;73.10;22.50;96572.00;;;;5028298;28;20668;-79
2023/08/19 00:52:57;;;;;;;2.13;2.03;;;23.10;73.00;22.50;96574.00;;;;5026259;28;20256;-78
2023/08/19 00:55:25;;;;;;;2.40;2.20;;;23.10;73.00;22.50;96582.00;;;;5025446;28;20298;-78
2023/08/19 00:57:54;;;;;;;2.50;2.30;;;23.10;73.10;22.50;96570.00;;;;5037740;28;20227;-79
2023/08/19 01:00:21;;;;;;;2.37;2.10;;;23.10;73.20;22.50;96576.00;;;;5005998;28;20207;-79
2023/08/19 01:02:48;;;;;;;2.70;2.17;;;23.00;73.20;22.50;96575.00;;;;5005919;28;20199;-78
2023/08/19 01:05:17;;;;;;;2.17;2.00;;;23.00;73.30;22.50;96570.00;;;;5026304;28;20748;-78
2023/08/19 01:07:53;;;;;;;5.77;2.47;;;23.00;73.40;22.40;96567.00;;;;5037456;28;20209;-78
2023/08/19 01:10:33;;;;;;;2.40;2.20;;;23.00;73.20;22.40;96567.00;;;;5034878;28;20272;-78
2023/08/19 01:13:12;;;;;;;2.10;1.90;;;23.00;73.20;22.40;96564.00;;;;5032434;28;20194;-78
2023/08/19 01:15:50;;;;;;;1.93;1.83;;;23.00;73.10;22.30;96566.00;;;;5030108;28;20228;-79
2023/08/19 01:18:18;;;;;;;3.20;2.23;;;23.00;72.90;22.30;96559.00;;;;5033758;28;20218;-78
2023/08/19 01:20:47;;;;;;;4.07;2.40;;;23.00;72.90;22.30;96563.00;;;;5034007;28;20200;-79
2023/08/19 01:23:19;;;;;;;2.07;1.83;;;23.00;72.90;22.30;96563.00;;;;5033080;28;20669;-79
2023/08/19 01:25:49;;;;;;;1.93;1.83;;;22.90;73.00;22.30;96551.00;;;;5019090;28;20247;-79
2023/08/19 01:28:20;;;;;;;3.37;2.27;;;22.90;73.00;22.20;96556.00;;;;5025755;28;20204;-79
2023/08/19 01:30:47;;;;;;;2.33;2.17;;;22.90;73.80;22.20;96558.00;;;;5035059;28;20253;-79
2023/08/19 01:33:15;;;;;;;2.00;1.90;;;22.90;73.40;22.20;96550.00;;;;5033291;28;20195;-79
2023/08/19 01:35:49;;;;;;;3.13;1.90;;;22.90;73.50;22.20;96550.00;;;;5025216;28;20209;-79
2023/08/19 01:38:25;;;;;;;2.63;2.37;;;22.90;73.60;22.20;96550.00;;;;5025139;28;20303;-79
2023/08/19 01:40:54;;;;;;;2.77;2.57;;;22.90;73.50;22.20;96549.00;;;;5025008;28;20231;-79
2023/08/19 01:43:23;;;;;;;2.63;2.43;;;22.80;73.40;22.10;96556.00;;;;5033430;28;20230;-79
2023/08/19 01:45:51;;;;;;;2.17;2.07;;;22.80;73.40;22.10;96544.00;;;;5024396;28;20300;-79
2023/08/19 01:48:18;;;;;;;2.57;2.37;;;22.80;73.40;22.10;96549.00;;;;4997571;28;20199;-79
2023/08/19 01:50:46;;;;;;;2.00;1.87;;;22.80;73.40;22.10;96548.00;;;;5022459;28;20271;-79
2023/08/19 01:53:13;;;;;;;2.60;2.40;;;22.80;73.50;22.00;96552.00;;;;5021959;28;20186;-77
2023/08/19 01:55:40;;;;;;;2.07;1.80;;;22.70;73.50;22.00;96554.00;;;;5020455;28;20215;-78
2023/08/19 01:58:09;;;;;;;3.23;2.23;;;22.70;73.60;22.00;96552.00;;;;5024006;28;20249;-78
2023/08/19 02:00:36;;;;;;;2.27;2.17;;;22.70;73.50;22.00;96551.00;;;;5024207;28;20195;-78
2023/08/19 02:03:05;;;;;;;2.20;2.10;;;22.70;73.40;21.90;96554.00;;;;5028298;28;20573;-78
2023/08/19 02:05:32;;;;;;;3.53;2.40;;;22.60;73.20;21.90;96547.00;;;;5020102;28;20224;-78
2023/08/19 02:07:59;;;;;;;2.30;2.10;;;22.60;73.40;21.90;96550.00;;;;5021993;28;20686;-78
2023/08/19 02:10:26;;;;;;;2.33;2.23;;;22.60;73.60;21.90;96542.00;;;;5023763;28;20285;-78
2023/08/19 02:12:54;;;;;;;2.53;2.33;;;22.60;73.70;21.80;96546.00;;;;5023639;28;20289;-78
2023/08/19 02:15:22;;;;;;;3.00;2.30;;;22.50;73.70;21.80;96550.00;;;;5025106;28;20218;-78
2023/08/19 02:17:50;;;;;;;2.77;2.40;;;22.50;73.70;21.80;96552.00;;;;5032766;28;20236;-78
2023/08/19 02:20:17;;;;;;;2.60;2.40;;;22.50;73.70;21.80;96555.00;;;;5025329;28;20197;-78
2023/08/19 02:22:44;;;;;;;2.70;2.50;;;22.40;73.70;21.70;96554.00;;;;5033942;28;20202;-78
2023/08/19 02:25:11;;;;;;;2.40;2.20;;;22.40;73.80;21.70;96553.00;;;;5029162;28;20214;-78
2023/08/19 02:27:39;;;;;;;2.67;2.47;;;22.40;73.80;21.70;96550.00;;;;5029220;28;20208;-78
2023/08/19 02:30:10;;;;;;;2.20;2.10;;;22.40;73.90;21.70;96545.00;;;;5031006;28;20717;-78
2023/08/19 02:32:40;;;;;;;2.53;2.33;;;22.40;73.90;21.60;96549.00;;;;5022007;28;20698;-78
2023/08/19 02:35:08;;;;;;;2.20;2.10;;;22.30;73.90;21.60;96550.00;;;;5028203;28;20217;-78
2023/08/19 02:37:35;;;;;;;2.50;2.30;;;22.30;74.00;21.60;96558.00;;;;5022503;28;20217;-78
2023/08/19 02:40:03;;;;;;;2.93;2.73;;;22.30;73.90;21.60;96556.00;;;;5019744;28;20206;-78
2023/08/19 02:42:31;;;;;;;3.50;2.67;;;22.30;74.70;21.50;96550.00;;;;5027496;28;20186;-79
2023/08/19 02:44:59;;;;;;;2.40;2.20;;;22.30;74.10;21.50;96554.00;;;;5028315;28;20311;-78
2023/08/19 02:47:26;;;;;;;2.30;2.17;;;22.20;74.20;21.50;96556.00;;;;5036950;28;20205;-79
2023/08/19 02:49:55;;;;;;;6.00;2.23;;;22.20;74.20;21.50;96554.00;;;;5021700;28;20197;-78
2023/08/19 02:52:22;;;;;;;2.60;2.27;;;22.20;74.20;21.50;96559.00;;;;5017353;28;20568;-78
2023/08/19 02:54:49;;;;;;;2.47;2.20;;;22.20;74.30;21.40;96557.00;;;;5030008;28;20728;-78
2023/08/19 02:57:17;;;;;;;2.47;2.27;;;22.10;74.20;21.40;96556.00;;;;5011291;28;20228;-79
2023/08/19 02:59:44;;;;;;;3.07;2.20;;;22.10;74.20;21.40;96551.00;;;;5011597;28;20292;-79
2023/08/19 03:02:11;;;;;;;2.10;2.00;;;22.10;74.20;21.40;96551.00;;;;5022235;28;20204;-78
2023/08/19 03:04:38;;;;;;;2.60;2.37;;;22.10;74.20;21.30;96547.00;;;;5015889;28;20288;-78
2023/08/19 03:07:07;;;;;;;2.63;2.43;;;22.00;74.10;21.30;96548.00;;;;5019014;28;20552;-79
2023/08/19 03:09:34;;;;;;;2.57;2.37;;;22.00;74.10;21.30;96554.00;;;;5018046;28;20194;-79
2023/08/19 03:12:02;;;;;;;2.37;2.17;;;22.00;74.00;21.30;96550.00;;;;5022592;28;20277;-78
2023/08/19 03:14:29;;;;;;;2.83;2.63;;;22.00;74.00;21.20;96552.00;;;;5024260;28;20692;-79
2023/08/19 03:16:56;;;;;;;2.37;2.20;;;21.90;74.10;21.20;96547.00;;;;5024088;28;20292;-78
2023/08/19 03:19:23;;;;;;;2.27;2.00;;;21.90;74.10;21.20;96555.00;;;;5024182;28;20272;-79
2023/08/19 03:21:50;;;;;;;2.70;2.50;;;21.90;74.20;21.10;96546.00;;;;5032225;28;20666;-79
2023/08/19 03:24:19;;;;;;;2.17;2.07;;;21.90;74.40;21.10;96552.00;;;;5020220;28;20194;-78
2023/08/19 03:26:46;;;;;;;2.53;2.33;;;21.80;74.40;21.10;96541.00;;;;5020872;28;20208;-78
2023/08/19 03:29:14;;;;;;;3.03;2.73;;;21.80;74.30;21.10;96544.00;;;;5021023;28;20277;-78
2023/08/19 03:31:41;;;;;;;2.00;1.90;;;21.80;74.50;21.10;96541.00;;;;5026631;28;20193;-78
2023/08/19 03:34:08;;;;;;;2.27;2.17;;;21.80;74.70;21.00;96539.00;;;;5022732;28;20198;-79
2023/08/19 03:36:36;;;;;;;2.63;2.50;;;21.80;74.80;21.00;96536.00;;;;5022695;28;20223;-78
2023/08/19 03:39:03;;;;;;;2.37;2.17;;;21.70;74.60;21.00;96537.00;;;;5024173;28;20227;-79
2023/08/19 03:41:32;;;;;;;3.20;2.40;;;21.70;74.70;21.00;96543.00;;;;5025168;28;20190;-78
2023/08/19 03:43:59;;;;;;;2.60;2.47;;;21.70;74.70;21.00;96547.00;;;;5012804;28;20202;-78
2023/08/19 03:46:26;;;;;;;2.97;2.20;;;21.70;74.60;20.90;96544.00;;;;5017035;28;20710;-78
2023/08/19 03:48:54;;;;;;;2.90;2.70;;;21.70;74.60;20.90;96546.00;;;;5011297;28;20587;-78
2023/08/19 03:51:21;;;;;;;2.20;2.10;;;21.60;74.60;20.90;96550.00;;;;5010561;28;20200;-78
2023/08/19 03:53:48;;;;;;;8.03;2.70;;;21.60;74.50;20.90;96561.00;;;;5027117;28;20205;-78
2023/08/19 03:56:15;;;;;;;2.73;2.53;;;21.60;74.70;20.80;96551.00;;;;5017476;28;20592;-78
2023/08/19 03:58:46;;;;;;;2.50;2.20;;;21.60;74.70;20.80;96557.00;;;;5026061;28;20217;-78
2023/08/19 04:01:13;;;;;;;3.10;2.90;;;21.50;74.70;20.80;96560.00;;;;5017490;28;20194;-78
2023/08/19 04:03:41;;;;;;;3.10;2.80;;;21.60;74.90;20.80;96562.00;;;;5018199;28;20224;-78
2023/08/19 04:06:08;;;;;;;2.80;2.60;;;21.50;74.90;20.80;96561.00;;;;5014309;28;20220;-78
2023/08/19 04:08:35;;;;;;;2.60;2.40;;;21.50;75.00;20.80;96561.00;;;;5021565;28;20194;-78
2023/08/19 04:11:06;;;;;;;3.17;2.87;;;21.50;75.00;20.80;96560.00;;;;5023396;28;20197;-79
2023/08/19 04:13:34;;;;;;;3.33;3.10;;;21.50;75.00;20.80;96566.00;;;;5024594;28;20186;-78
2023/08/19 04:16:08;;;;;;;3.50;3.17;;;21.50;75.80;20.70;96557.00;;;;5025876;28;20213;-78
2023/08/19 04:18:36;;;;;;;3.73;2.67;;;21.50;75.10;20.70;96566.00;;;;5021823;28;20252;-79
2023/08/19 04:21:05;;;;;;;3.47;3.17;;;21.50;75.20;20.70;96559.00;;;;5032710;28;20201;-78
2023/08/19 04:23:32;;;;;;;3.07;2.80;;;21.40;75.30;20.70;96562.00;;;;5021764;28;20276;-78
2023/08/19 04:26:00;;;;;;;4.70;3.20;;;21.40;75.60;20.70;96560.00;;;;5025740;28;20674;-78
2023/08/19 04:28:27;;;;;;;4.23;3.20;;;21.40;75.80;20.70;96569.00;;;;5014936;28;20202;-78
2023/08/19 04:31:03;;;;;;;3.10;2.90;;;21.40;75.90;20.70;96571.00;;;;5032096;28;20197;-78
2023/08/19 04:33:32;;;;;;;3.53;3.23;;;21.40;76.00;20.70;96580.00;;;;5022920;28;20197;-78
2023/08/19 04:36:00;;;;;;;3.40;3.10;;;21.40;75.90;20.70;96573.00;;;;5025294;28;20301;-78
2023/08/19 04:38:27;;;;;;;3.50;3.13;;;21.40;75.90;20.70;96585.00;;;;5028953;28;20231;-78
2023/08/19 04:40:54;;;;;;;3.40;3.10;;;21.40;76.20;20.70;96583.00;;;;5018015;28;20207;-79
2023/08/19 04:43:22;;;;;;;3.77;3.27;;;21.40;76.30;20.80;96586.00;;;;5030794;28;20194;-78
2023/08/19 04:45:50;;;;;;;4.90;3.90;;;21.40;76.30;20.80;96591.00;;;;5020480;28;20225;-78
2023/08/19 04:48:17;;;;;;;5.10;3.97;;;21.40;76.40;20.80;96589.00;;;;5014094;28;20663;-78
2023/08/19 04:50:46;;;;;;;3.40;3.20;;;21.40;76.40;20.80;96590.00;;;;5020240;28;20201;-78
2023/08/19 04:53:13;;;;;;;4.03;3.50;;;21.50;76.60;20.80;96599.00;;;;5025215;28;20292;-78
2023/08/19 04:55:40;;;;;;;3.93;3.50;;;21.50;76.60;20.80;96591.00;;;;5024146;28;20576;-78
2023/08/19 04:58:08;;;;;;;3.70;3.40;;;21.50;76.60;20.80;96593.00;;;;5021656;28;20239;-78
2023/08/19 05:00:35;;;;;;;3.73;3.20;;;21.50;76.60;20.80;96593.00;;;;5023803;28;20197;-78
2023/08/19 05:03:03;;;;;;;3.20;2.90;;;21.50;76.50;20.90;96604.00;;;;5028979;28;20198;-78
2023/08/19 05:05:30;;;;;;;3.60;3.27;;;21.60;76.90;20.90;96597.00;;;;5011921;28;20224;-78
2023/08/19 05:07:59;;;;;;;3.30;3.00;;;21.50;76.60;20.90;96605.00;;;;5030304;28;20434;-78
2023/08/19 05:10:26;;;;;;;4.27;3.13;;;21.60;76.60;20.90;96604.00;;;;5020404;28;20202;-79
2023/08/19 05:12:54;;;;;;;3.37;3.17;;;21.60;76.60;20.90;96611.00;;;;5029716;28;20202;-78
2023/08/19 05:15:22;;;;;;;3.97;3.00;;;21.60;76.60;20.90;96610.00;;;;5024001;28;20237;-81
2023/08/19 05:17:49;;;;;;;3.33;3.07;;;21.60;76.60;20.90;96616.00;;;;5015396;28;20304;-82
2023/08/19 05:20:18;;;;;;;3.30;3.10;;;21.60;76.70;20.90;96620.00;;;;5028252;28;20721;-81
2023/08/19 05:22:45;;;;;;;3.27;2.97;;;21.60;76.80;20.90;96623.00;;;;5028400;28;20750;-81
2023/08/19 05:25:14;;;;;;;3.60;3.30;;;21.60;76.90;21.00;96622.00;;;;5034979;28;20593;-82
2023/08/19 05:27:42;;;;;;;3.53;3.23;;;21.60;77.00;21.00;96622.00;;;;5020652;28;20220;-81
2023/08/19 05:30:11;;;;;;;3.40;3.20;;;21.60;77.10;21.00;96632.00;;;;5017412;28;20201;-82
2023/08/19 05:32:39;;;;;;;3.83;3.00;;;21.60;77.30;21.00;96635.00;;;;5019168;28;20292;-82
2023/08/19 05:35:07;;;;;;;5.63;4.20;;;21.70;77.50;21.00;96635.00;;;;5022061;28;20318;-82
2023/08/19 05:37:34;;;;;;;3.80;3.50;;;21.70;77.80;21.10;96630.00;;;;5027918;28;20207;-83
2023/08/19 05:40:03;;;;;;;5.20;4.70;;;21.70;77.90;21.10;96634.00;;;;5014083;28;20202;-82
2023/08/19 05:42:32;;;;;;;5.97;5.47;;;21.70;78.10;21.10;96632.00;;;;5013527;28;20195;-82
2023/08/19 05:44:59;;;;;;;6.63;6.03;;;21.80;78.50;21.20;96636.00;;;;5046115;22;20229;-80
2023/08/19 05:47:27;;;;;;;7.00;5.43;;;21.80;78.70;21.20;96637.00;;;;5032017;28;20650;-80
2023/08/19 05:49:54;;;;;;;6.40;5.80;;;21.80;78.80;21.20;96640.00;;;;5051794;28;20203;-79
2023/08/19 05:52:21;;;;;;;7.07;6.37;;;21.80;79.00;21.30;96647.00;;;;5049252;28;20236;-80
2023/08/19 05:54:48;;;;;;;7.57;6.83;;;21.90;79.40;21.30;96641.00;;;;5038636;28;20193;-80
2023/08/19 05:57:17;;;;;;;7.83;7.07;;;21.90;79.70;21.40;96639.00;;;;5016332;28;20198;-80
2023/08/19 05:59:46;;;;;;;8.00;6.63;;;21.90;79.90;21.40;96639.00;;;;5024292;28;20315;-80
2023/08/19 06:02:13;;;;;;;7.33;6.63;;;22.00;80.10;21.50;96646.00;;;;5024601;28;20206;-81
2023/08/19 06:04:40;;;;;;;6.87;6.27;;;22.00;80.20;21.50;96648.00;;;;5025015;28;20203;-81
2023/08/19 06:07:08;;;;;;;6.27;5.63;;;22.10;80.40;21.60;96647.00;;;;5021943;28;20597;-81
2023/08/19 06:09:35;;;;;;;6.03;5.53;;;22.10;80.60;21.60;96644.00;;;;5026969;28;20198;-81
2023/08/19 06:12:03;;;;;;;6.30;5.70;;;22.20;80.80;21.70;96647.00;;;;5026676;28;20202;-81
2023/08/19 06:14:30;;;;;;;6.20;5.70;;;22.20;81.00;21.80;96650.00;;;;5020891;28;20204;-81
2023/08/19 06:16:59;;;;;;;6.07;5.47;;;22.20;81.10;21.90;96647.00;;;;5023297;28;20217;-82
2023/08/19 06:19:27;;;;;;;5.07;4.67;;;22.30;81.20;21.90;96653.00;;;;5035063;28;20217;-82
2023/08/19 06:21:54;;;;;;;5.13;4.63;;;22.40;81.20;22.00;96654.00;;;;5026794;28;20194;-81
2023/08/19 06:24:21;;;;;;;5.13;4.63;;;22.40;81.10;22.00;96658.00;;;;5026174;28;20630;-82
2023/08/19 06:26:48;;;;;;;5.67;4.60;;;22.50;81.10;22.10;96656.00;;;;5026182;28;20693;-81
2023/08/19 06:29:16;;;;;;;4.67;4.27;;;22.50;81.00;22.10;96665.00;;;;5028279;28;20199;-82
2023/08/19 06:31:43;;;;;;;5.87;5.17;;;22.60;81.00;22.20;96664.00;;;;5014807;28;20201;-81
2023/08/19 06:34:15;;;;;;;5.43;4.93;;;22.60;81.00;22.30;96661.00;;;;5018194;28;20285;-82
2023/08/19 06:36:49;;;;;;;5.73;5.23;;;22.70;81.10;22.30;96658.00;;;;5025519;28;20220;-81
2023/08/19 06:39:26;;;;;;;5.47;4.97;;;22.70;80.90;22.40;96660.00;;;;5022922;28;20226;-82
2023/08/19 06:42:05;;;;;;;4.97;4.33;;;22.80;81.10;22.40;96669.00;;;;5022694;28;20283;-81
2023/08/19 06:44:35;;;;;;;4.80;4.40;;;22.90;81.10;22.50;96669.00;;;;5014239;28;20210;-81
2023/08/19 06:47:07;;;;;;;4.90;4.40;;;22.90;81.00;22.60;96668.00;;;;5022765;28;20701;-82
2023/08/19 06:49:37;;;;;;;4.93;4.03;;;22.90;80.90;22.60;96675.00;;;;5026622;28;20241;-81
2023/08/19 06:52:06;;;;;;;5.47;3.90;;;23.10;80.80;22.70;96673.00;;;;5025299;28;20196;-82
2023/08/19 06:54:34;;;;;;;5.20;4.10;;;23.10;80.40;22.80;96684.00;;;;5016971;28;20285;-81
2023/08/19 06:57:08;;;;;;;4.07;3.77;;;23.20;80.40;22.90;96685.00;;;;5022317;28;20202;-82
2023/08/19 06:59:38;;;;;;;4.93;3.80;;;23.30;80.00;23.00;96684.00;;;;5020063;28;20228;-81
2023/08/19 07:02:07;;;;;;;3.47;3.07;;;23.30;79.70;23.10;96686.00;;;;5020695;28;20299;-81
2023/08/19 07:04:37;;;;;;;3.17;2.90;;;23.40;79.80;23.10;96688.00;;;;5025506;28;20202;-82
2023/08/19 07:07:07;;;;;;;3.40;3.10;;;23.50;79.70;23.20;96691.00;;;;5016124;28;20288;-81
2023/08/19 07:09:37;;;;;;;3.30;3.00;;;23.60;80.30;23.30;96703.00;;;;5019748;28;20197;-82
2023/08/19 07:12:07;;;;;;;3.27;2.90;;;23.60;79.40;23.40;96695.00;;;;5027644;28;20555;-81
2023/08/19 07:14:38;;;;;;;3.13;2.83;;;23.70;79.20;23.50;96696.00;;;;5006829;28;20194;-81
2023/08/19 07:17:08;;;;;;;2.80;2.60;;;23.80;79.20;23.60;96701.00;;;;5033948;28;20201;-81
2023/08/19 07:19:40;;;;;;;3.67;3.20;;;23.90;79.50;23.70;96698.00;;;;5028297;28;20312;-81
2023/08/19 07:22:09;;;;;;;2.90;2.70;;;24.00;79.70;23.80;96701.00;;;;5024973;28;20225;-82
2023/08/19 07:24:37;;;;;;;2.63;2.43;;;24.10;79.70;24.00;96711.00;;;;5018024;28;20232;-79
2023/08/19 07:27:06;;;;;;;2.77;2.57;;;24.20;79.50;24.10;96707.00;;;;5023972;28;20213;-79
2023/08/19 07:29:37;;;;;;;2.93;2.73;;;24.30;79.40;24.20;96709.00;;;;5018933;28;20285;-79
2023/08/19 07:32:06;;;;;;;3.37;2.70;;;24.40;79.20;24.30;96703.00;;;;5021557;28;20213;-79
2023/08/19 07:34:33;;;;;;;2.63;2.43;;;24.60;78.70;24.50;96715.00;;;;5026899;28;20233;-79
2023/08/19 07:37:03;;;;;;;2.97;2.77;;;24.70;78.70;24.60;96709.00;;;;5017246;28;20197;-80
2023/08/19 07:39:31;;;;;;;2.63;2.43;;;24.80;78.80;24.70;96715.00;;;;5035840;28;20232;-80
2023/08/19 07:41:59;;;;;;;3.83;2.73;;;24.90;78.80;24.90;96722.00;;;;5024936;28;20202;-80
2023/08/19 07:44:27;;;;;;;3.57;2.80;;;25.10;78.60;25.00;96714.00;;;;5023475;28;20225;-80
2023/08/19 07:46:59;;;;;;;2.93;2.73;;;25.20;78.50;25.10;96722.00;;;;5031405;28;20256;-80
2023/08/19 07:49:26;;;;;;;2.87;2.67;;;25.30;78.00;25.30;96729.00;;;;5020531;28;20198;-80
2023/08/19 07:51:54;;;;;;;2.67;2.47;;;25.50;77.90;25.40;96728.00;;;;5023585;28;20573;-80
2023/08/19 07:54:23;;;;;;;3.10;2.90;;;25.60;77.40;25.50;96727.00;;;;5022022;28;20201;-80
2023/08/19 07:56:53;;;;;;;2.80;2.40;;;25.70;76.80;25.60;96730.00;;;;5003595;28;20258;-81
2023/08/19 07:59:22;;;;;;;2.53;2.33;;;25.90;76.80;25.80;96735.00;;;;5023049;28;20217;-82
2023/08/19 08:01:49;;;;;;;2.80;2.60;;;26.00;76.80;25.90;96740.00;;;;5033840;28;20201;-81
2023/08/19 08:04:17;;;;;;;2.83;2.53;;;26.10;76.80;26.10;96734.00;;;;5021336;28;20198;-80
2023/08/19 08:06:46;;;;;;;3.07;2.43;;;26.30;76.40;26.20;96739.00;;;;5024277;28;20224;-80
2023/08/19 08:09:14;;;;;;;2.70;2.50;;;26.40;76.40;26.30;96733.00;;;;5023439;28;20194;-80
2023/08/19 08:11:45;;;;;;;4.07;2.63;;;26.50;76.30;26.40;96730.00;;;;5030657;28;20193;-81
2023/08/19 08:14:13;;;;;;;2.53;2.33;;;26.60;75.60;26.60;96732.00;;;;5027691;28;20205;-81
2023/08/19 08:16:40;;;;;;;2.70;2.50;;;26.80;75.50;26.70;96731.00;;;;5031562;28;20304;-81
2023/08/19 08:19:07;;;;;;;3.13;2.50;;;26.90;75.00;26.80;96733.00;;;;5029373;28;20261;-82
2023/08/19 08:21:34;;;;;;;2.40;2.30;;;27.00;74.80;26.90;96733.00;;;;5026722;28;20195;-81
2023/08/19 08:24:03;;;;;;;2.50;2.30;;;27.10;74.50;27.00;96740.00;;;;5027317;28;20204;-81
2023/08/19 08:26:31;;;;;;;3.22;2.65;;;27.20;74.00;27.20;96739.00;;;;5030735;28;20304;-80
2023/08/19 08:28:59;;;;;;;2.50;2.40;;;27.30;73.90;27.30;96742.00;;;;5019504;28;20202;-81
2023/08/19 08:31:26;;;;;;;3.40;2.90;;;27.50;74.00;27.40;96739.00;;;;5008751;28;20190;-82
2023/08/19 08:33:53;;;;;;;2.92;2.17;;;27.60;73.80;27.60;96732.00;;;;5033116;28;20213;-80
2023/08/19 08:36:22;;;;;;;3.13;2.92;;;27.70;73.70;27.70;96730.00;;;;5031394;28;20300;-82
2023/08/19 08:38:49;;;;;;;3.05;2.78;;;27.90;73.70;27.80;96743.00;;;;5030587;28;20226;-81
2023/08/19 08:41:18;;;;;;;3.88;2.72;;;28.00;73.80;27.90;96739.00;;;;5034156;28;20200;-81
2023/08/19 08:43:49;;;;;;;3.72;3.40;;;28.10;73.70;28.10;96742.00;;;;5026700;28;20202;-80
2023/08/19 08:46:19;;;;;;;3.70;2.97;;;28.30;73.00;28.20;96741.00;;;;5023521;28;20690;-81
2023/08/19 08:48:48;;;;;;;3.17;2.92;;;28.40;73.20;28.40;96732.00;;;;5025224;28;20198;-81
2023/08/19 08:51:17;;;;;;;3.00;2.80;;;28.50;73.00;28.50;96731.00;;;;5021476;28;20191;-82
2023/08/19 08:53:44;;;;;;;3.30;2.85;;;28.60;73.00;28.60;96741.00;;;;5021925;28;20738;-83
2023/08/19 08:56:12;;;;;;;3.17;2.88;;;28.80;72.90;28.80;96743.00;;;;5025083;28;20419;-84
2023/08/19 08:58:39;;;;;;;3.15;2.92;;;28.90;72.90;28.90;96749.00;;;;5024188;28;20689;-84
2023/08/19 09:01:08;;;;;;;3.45;3.25;;;29.00;72.40;29.10;96749.00;;;;5016670;28;20202;-84
2023/08/19 09:03:40;;;;;;;3.10;2.80;;;29.20;72.30;29.20;96754.00;;;;5036157;28;20285;-83
2023/08/19 09:06:16;;;;;;;3.50;3.20;;;29.30;71.60;29.40;96754.00;;;;5032741;28;20221;-83
2023/08/19 09:08:50;;;;;;;8.27;5.30;;;29.50;70.90;29.50;96749.00;;;;5038841;28;20217;-81
2023/08/19 09:11:27;;;;;;;3.30;3.10;;;29.60;70.90;29.70;96752.00;;;;5034799;28;20233;-82
2023/08/19 09:14:02;;;;;;;3.20;3.00;;;29.70;69.10;29.80;96755.00;;;;5038051;28;20205;-83
2023/08/19 09:16:31;;;;;;;2.80;2.60;;;29.90;69.60;30.00;96757.00;;;;5040131;28;20281;-82
2023/08/19 09:18:59;;;;;;;2.78;2.58;;;30.10;70.00;30.10;96760.00;;;;5030171;28;20690;-83
2023/08/19 09:21:27;;;;;;;3.30;3.10;;;30.20;69.50;30.30;96754.00;;;;5029769;28;20654;-84
2023/08/19 09:23:55;;;;;;;3.00;2.80;;;30.30;68.80;30.40;96755.00;;;;5019417;28;20204;-84
2023/08/19 09:26:23;;;;;;;3.40;3.08;;;30.50;68.60;30.50;96756.00;;;;5021105;28;20222;-83
2023/08/19 09:28:50;;;;;;;2.58;2.47;;;30.60;67.90;30.70;96757.00;;;;5024795;28;20194;-83
2023/08/19 09:31:30;;;;;;;2.85;2.65;;;30.70;68.00;30.80;96759.00;;;;5024991;28;20203;-83
2023/08/19 09:33:59;;;;;;;3.17;2.97;;;30.90;65.00;30.90;96756.00;;;;5029380;28;20200;-84
2023/08/19 09:36:27;;;;;;;3.40;3.08;;;31.00;65.80;31.10;96751.00;;;;5027678;28;20214;-84
2023/08/19 09:38:56;;;;;;;3.25;3.05;;;31.20;65.80;31.20;96752.00;;;;5000321;28;20205;-84
2023/08/19 09:41:27;;;;;;;3.08;2.85;;;31.30;65.60;31.30;96748.00;;;;5020145;28;20244;-83
2023/08/19 09:43:56;;;;;;;3.05;2.72;;;31.40;65.20;31.40;96752.00;;;;5022581;28;20199;-83
2023/08/19 09:46:32;;;;;;;3.13;2.90;;;31.50;64.80;31.60;96749.00;;;;5022348;28;20252;-82
2023/08/19 09:49:03;;;;;;;2.90;2.70;;;31.70;63.00;31.70;96758.00;;;;5022241;28;20212;-84
2023/08/19 09:51:31;;;;;;;2.83;2.55;;;31.80;64.10;31.80;96752.00;;;;5019264;28;20202;-84
2023/08/19 09:54:09;;;;;;;4.22;2.42;;;31.90;64.50;31.90;96758.00;;;;5020674;28;20201;-81
2023/08/19 09:56:37;;;;;;;2.78;2.58;;;32.00;62.50;32.10;96758.00;;;;5016527;28;20268;-81
2023/08/19 09:59:06;;;;;;;4.55;2.78;;;32.20;63.50;32.20;96747.00;;;;5028977;28;20212;-82
2023/08/19 10:01:34;;;;;;;2.95;2.75;;;32.30;62.90;32.40;96752.00;;;;5020805;28;20202;-81
2023/08/19 10:04:05;;;;;;;3.25;3.05;;;32.40;62.90;32.50;96755.00;;;;5023840;28;20200;-81
2023/08/19 10:06:36;;;;;;;2.78;2.58;;;32.50;61.00;32.60;96762.00;;;;5019631;28;20221;-81
2023/08/19 10:09:09;;;;;;;3.22;2.63;;;32.60;60.60;32.80;96755.00;;;;5022671;28;20201;-83
2023/08/19 10:11:43;;;;;;;6.40;2.88;;;32.70;60.60;32.90;96766.00;;;;5034405;28;20272;-84
2023/08/19 10:14:12;;;;;;;3.45;2.88;;;32.80;60.90;33.10;96752.00;;;;5014292;28;20293;-84
2023/08/19 10:16:45;;;;;;;3.22;2.80;;;33.00;61.40;33.20;96756.00;;;;5028762;28;20232;-84
2023/08/19 10:19:20;;;;;;;2.83;2.63;;;33.10;60.70;33.30;96754.00;;;;5032533;28;20185;-84
2023/08/19 10:21:51;;;;;;;2.47;2.35;;;33.20;60.00;33.40;96758.00;;;;5028205;28;20197;-84
2023/08/19 10:24:22;;;;;;;2.80;2.60;;;33.40;59.30;33.50;96746.00;;;;5021022;28;20202;-83
2023/08/19 10:26:49;;;;;;;2.50;2.40;;;33.50;59.80;33.60;96749.00;;;;5013571;28;20222;-84
2023/08/19 10:29:17;;;;;;;2.92;2.22;;;33.60;59.50;33.70;96751.00;;;;5025745;28;20284;-84
2023/08/19 10:31:44;;;;;;;2.40;2.20;;;33.70;59.10;33.80;96759.00;;;;5023780;28;20201;-84
2023/08/19 10:34:25;;;;;;;2.25;2.15;;;33.80;58.80;33.90;96754.00;;;;5012914;28;20198;-84
2023/08/19 10:37:07;;;;;;;2.50;2.30;;;33.90;58.40;34.00;96754.00;;;;5028210;28;20213;-84
2023/08/19 10:39:35;;;;;;;2.30;2.20;;;34.10;57.20;34.10;96760.00;;;;5023783;28;20225;-83
2023/08/19 10:42:03;;;;;;;2.42;1.80;;;34.10;58.30;34.10;96757.00;;;;5028654;28;20193;-84
2023/08/19 10:44:33;;;;;;;2.20;2.00;;;34.20;57.10;34.20;96749.00;;;;5010803;28;20563;-84
2023/08/19 10:47:10;;;;;;;3.58;2.08;;;34.40;56.80;34.30;96752.00;;;;5012714;28;20200;-84
2023/08/19 10:49:39;;;;;;;2.13;1.67;;;34.40;55.70;34.40;96758.00;;;;5030837;28;20616;-84
2023/08/19 10:52:07;;;;;;;1.95;1.85;;;34.50;56.60;34.50;96756.00;;;;5023753;28;20221;-84
2023/08/19 10:54:38;;;;;;;2.35;1.80;;;34.60;56.10;34.50;96759.00;;;;5027050;28;20201;-83
2023/08/19 10:57:15;;;;;;;1.88;1.77;;;34.60;56.20;34.50;96759.00;;;;5023257;28;20198;-85
2023/08/19 10:59:45;;;;;;;1.83;1.73;;;34.60;53.70;34.50;96758.00;;;;5027999;28;20259;-84
2023/08/19 11:02:13;;;;;;;1.75;1.65;;;34.70;54.10;34.50;96758.00;;;;5022063;28;20200;-84